sensor_id;sensor_type;location;lat;lon;timestamp;P1;durP1;ratioP1;P2;durP2;ratioP2
51228;SDS011;37304;52.216;6.874;2023-04-25T00:01:53;9.67;;;1.93;;
51228;SDS011;37304;52.216;6.874;2023-04-25T00:06:54;10.70;;;1.87;;
51228;SDS011;37304;52.216;6.874;2023-04-25T00:11:54;11.77;;;2.70;;
51228;SDS011;37304;52.216;6.874;2023-04-25T00:16:55;10.00;;;2.03;;
51228;SDS011;37304;52.216;6.874;2023-04-25T00:21:56;11.75;;;2.20;;
51228;SDS011;37304;52.216;6.874;2023-04-25T00:26:56;6.67;;;1.53;;
51228;SDS011;37304;52.216;6.874;2023-04-25T00:31:56;9.50;;;2.40;;
51228;SDS011;37304;52.216;6.874;2023-04-25T00:36:57;7.33;;;2.43;;
51228;SDS011;37304;52.216;6.874;2023-04-25T00:41:57;10.25;;;2.47;;
51228;SDS011;37304;52.216;6.874;2023-04-25T00:46:58;6.15;;;1.83;;
51228;SDS011;37304;52.216;6.874;2023-04-25T00:52:00;8.88;;;1.73;;
51228;SDS011;37304;52.216;6.874;2023-04-25T00:57:00;9.40;;;2.23;;
51228;SDS011;37304;52.216;6.874;2023-04-25T01:02:01;6.38;;;2.45;;
51228;SDS011;37304;52.216;6.874;2023-04-25T01:07:01;9.50;;;2.30;;
51228;SDS011;37304;52.216;6.874;2023-04-25T01:12:02;20.65;;;2.80;;
51228;SDS011;37304;52.216;6.874;2023-04-25T01:17:03;3.22;;;1.92;;
51228;SDS011;37304;52.216;6.874;2023-04-25T01:22:03;18.25;;;2.20;;
51228;SDS011;37304;52.216;6.874;2023-04-25T01:27:04;10.40;;;2.33;;
51228;SDS011;37304;52.216;6.874;2023-04-25T01:32:05;13.98;;;2.67;;
51228;SDS011;37304;52.216;6.874;2023-04-25T01:37:07;6.22;;;2.08;;
51228;SDS011;37304;52.216;6.874;2023-04-25T01:42:07;13.90;;;3.40;;
51228;SDS011;37304;52.216;6.874;2023-04-25T01:47:07;20.67;;;2.80;;
51228;SDS011;37304;52.216;6.874;2023-04-25T01:52:08;6.63;;;1.87;;
51228;SDS011;37304;52.216;6.874;2023-04-25T01:57:08;13.37;;;2.10;;
51228;SDS011;37304;52.216;6.874;2023-04-25T02:02:08;4.60;;;2.70;;
51228;SDS011;37304;52.216;6.874;2023-04-25T02:07:09;13.70;;;2.40;;
51228;SDS011;37304;52.216;6.874;2023-04-25T02:12:09;11.53;;;2.47;;
51228;SDS011;37304;52.216;6.874;2023-04-25T02:17:10;7.28;;;2.30;;
51228;SDS011;37304;52.216;6.874;2023-04-25T02:22:12;12.13;;;2.35;;
51228;SDS011;37304;52.216;6.874;2023-04-25T02:27:13;6.03;;;1.90;;
51228;SDS011;37304;52.216;6.874;2023-04-25T02:32:13;6.07;;;1.80;;
51228;SDS011;37304;52.216;6.874;2023-04-25T02:37:13;9.47;;;1.87;;
51228;SDS011;37304;52.216;6.874;2023-04-25T02:42:14;11.33;;;2.57;;
51228;SDS011;37304;52.216;6.874;2023-04-25T02:47:14;7.83;;;1.57;;
51228;SDS011;37304;52.216;6.874;2023-04-25T02:52:15;5.03;;;1.73;;
51228;SDS011;37304;52.216;6.874;2023-04-25T02:57:15;11.50;;;2.40;;
51228;SDS011;37304;52.216;6.874;2023-04-25T03:02:15;9.63;;;2.20;;
51228;SDS011;37304;52.216;6.874;2023-04-25T03:07:16;6.87;;;2.07;;
51228;SDS011;37304;52.216;6.874;2023-04-25T03:12:16;10.30;;;1.83;;
51228;SDS011;37304;52.216;6.874;2023-04-25T03:17:16;10.87;;;2.37;;
51228;SDS011;37304;52.216;6.874;2023-04-25T03:22:17;8.27;;;1.63;;
51228;SDS011;37304;52.216;6.874;2023-04-25T03:27:17;14.00;;;1.93;;
51228;SDS011;37304;52.216;6.874;2023-04-25T03:32:17;5.83;;;2.07;;
51228;SDS011;37304;52.216;6.874;2023-04-25T03:37:18;11.30;;;2.03;;
51228;SDS011;37304;52.216;6.874;2023-04-25T03:42:18;3.60;;;1.50;;
51228;SDS011;37304;52.216;6.874;2023-04-25T03:47:19;3.72;;;1.38;;
51228;SDS011;37304;52.216;6.874;2023-04-25T03:52:20;6.70;;;1.80;;
51228;SDS011;37304;52.216;6.874;2023-04-25T03:57:20;17.00;;;1.93;;
51228;SDS011;37304;52.216;6.874;2023-04-25T04:02:21;6.27;;;2.20;;
51228;SDS011;37304;52.216;6.874;2023-04-25T04:07:22;10.15;;;2.00;;
51228;SDS011;37304;52.216;6.874;2023-04-25T04:12:22;5.83;;;2.20;;
51228;SDS011;37304;52.216;6.874;2023-04-25T04:17:22;4.40;;;1.67;;
51228;SDS011;37304;52.216;6.874;2023-04-25T04:22:23;8.17;;;1.30;;
51228;SDS011;37304;52.216;6.874;2023-04-25T04:32:24;6.90;;;2.10;;
51228;SDS011;37304;52.216;6.874;2023-04-25T04:37:25;9.13;;;2.35;;
51228;SDS011;37304;52.216;6.874;2023-04-25T04:42:25;7.23;;;1.87;;
51228;SDS011;37304;52.216;6.874;2023-04-25T04:47:26;9.87;;;2.40;;
51228;SDS011;37304;52.216;6.874;2023-04-25T04:52:31;8.15;;;1.92;;
51228;SDS011;37304;52.216;6.874;2023-04-25T04:57:31;11.67;;;1.93;;
51228;SDS011;37304;52.216;6.874;2023-04-25T05:02:32;5.97;;;2.15;;
51228;SDS011;37304;52.216;6.874;2023-04-25T05:07:33;8.10;;;2.23;;
51228;SDS011;37304;52.216;6.874;2023-04-25T05:12:34;9.50;;;2.03;;
51228;SDS011;37304;52.216;6.874;2023-04-25T05:17:35;2.60;;;1.40;;
51228;SDS011;37304;52.216;6.874;2023-04-25T05:22:36;10.43;;;2.08;;
51228;SDS011;37304;52.216;6.874;2023-04-25T05:27:37;7.18;;;1.67;;
51228;SDS011;37304;52.216;6.874;2023-04-25T05:32:37;7.83;;;1.77;;
51228;SDS011;37304;52.216;6.874;2023-04-25T05:37:38;9.90;;;2.33;;
51228;SDS011;37304;52.216;6.874;2023-04-25T05:42:38;6.83;;;2.57;;
51228;SDS011;37304;52.216;6.874;2023-04-25T05:47:38;12.80;;;2.63;;
51228;SDS011;37304;52.216;6.874;2023-04-25T05:52:39;4.93;;;1.20;;
51228;SDS011;37304;52.216;6.874;2023-04-25T05:57:39;7.07;;;1.70;;
51228;SDS011;37304;52.216;6.874;2023-04-25T06:02:41;8.40;;;2.30;;
51228;SDS011;37304;52.216;6.874;2023-04-25T06:07:42;4.78;;;1.40;;
51228;SDS011;37304;52.216;6.874;2023-04-25T06:12:43;6.78;;;1.70;;
51228;SDS011;37304;52.216;6.874;2023-04-25T06:17:44;4.28;;;1.00;;
51228;SDS011;37304;52.216;6.874;2023-04-25T06:22:44;6.17;;;1.87;;
51228;SDS011;37304;52.216;6.874;2023-04-25T06:27:45;8.00;;;2.07;;
51228;SDS011;37304;52.216;6.874;2023-04-25T06:32:45;7.97;;;1.63;;
51228;SDS011;37304;52.216;6.874;2023-04-25T06:37:46;3.97;;;1.37;;
51228;SDS011;37304;52.216;6.874;2023-04-25T06:42:46;7.10;;;1.30;;
51228;SDS011;37304;52.216;6.874;2023-04-25T06:47:47;2.40;;;0.90;;
51228;SDS011;37304;52.216;6.874;2023-04-25T06:52:47;8.93;;;1.10;;
51228;SDS011;37304;52.216;6.874;2023-04-25T06:57:47;7.67;;;1.17;;
51228;SDS011;37304;52.216;6.874;2023-04-25T07:02:48;0.90;;;0.60;;
51228;SDS011;37304;52.216;6.874;2023-04-25T07:07:48;4.70;;;1.20;;
51228;SDS011;37304;52.216;6.874;2023-04-25T07:12:48;5.97;;;2.20;;
51228;SDS011;37304;52.216;6.874;2023-04-25T07:17:49;9.73;;;1.97;;
51228;SDS011;37304;52.216;6.874;2023-04-25T07:22:49;9.05;;;1.15;;
51228;SDS011;37304;52.216;6.874;2023-04-25T07:27:50;4.20;;;1.20;;
51228;SDS011;37304;52.216;6.874;2023-04-25T07:32:50;2.43;;;0.63;;
51228;SDS011;37304;52.216;6.874;2023-04-25T07:37:51;6.97;;;1.00;;
51228;SDS011;37304;52.216;6.874;2023-04-25T07:42:51;6.25;;;1.27;;
51228;SDS011;37304;52.216;6.874;2023-04-25T07:47:51;6.17;;;1.20;;
51228;SDS011;37304;52.216;6.874;2023-04-25T07:57:52;4.82;;;1.35;;
51228;SDS011;37304;52.216;6.874;2023-04-25T08:07:53;2.50;;;0.57;;
51228;SDS011;37304;52.216;6.874;2023-04-25T08:12:54;4.13;;;0.93;;
51228;SDS011;37304;52.216;6.874;2023-04-25T08:17:54;4.13;;;0.77;;
51228;SDS011;37304;52.216;6.874;2023-04-25T08:22:54;2.97;;;0.80;;
51228;SDS011;37304;52.216;6.874;2023-04-25T08:27:55;6.07;;;1.03;;
51228;SDS011;37304;52.216;6.874;2023-04-25T08:32:56;2.55;;;0.38;;
51228;SDS011;37304;52.216;6.874;2023-04-25T08:37:56;3.80;;;0.57;;
51228;SDS011;37304;52.216;6.874;2023-04-25T08:42:57;3.58;;;0.90;;
51228;SDS011;37304;52.216;6.874;2023-04-25T08:47:58;6.47;;;1.20;;
51228;SDS011;37304;52.216;6.874;2023-04-25T08:53:00;8.27;;;1.00;;
51228;SDS011;37304;52.216;6.874;2023-04-25T08:58:04;2.55;;;0.60;;
51228;SDS011;37304;52.216;6.874;2023-04-25T09:03:05;2.20;;;0.63;;
51228;SDS011;37304;52.216;6.874;2023-04-25T09:08:05;7.53;;;0.60;;
51228;SDS011;37304;52.216;6.874;2023-04-25T09:13:07;3.67;;;1.00;;
51228;SDS011;37304;52.216;6.874;2023-04-25T09:18:21;2.20;;;0.90;;
51228;SDS011;37304;52.216;6.874;2023-04-25T09:23:26;7.82;;;1.10;;
51228;SDS011;37304;52.216;6.874;2023-04-25T09:28:26;2.97;;;0.63;;
51228;SDS011;37304;52.216;6.874;2023-04-25T09:33:28;5.05;;;0.80;;
51228;SDS011;37304;52.216;6.874;2023-04-25T09:38:30;2.92;;;0.80;;
51228;SDS011;37304;52.216;6.874;2023-04-25T09:43:32;4.35;;;0.60;;
51228;SDS011;37304;52.216;6.874;2023-04-25T09:48:33;2.47;;;0.70;;
51228;SDS011;37304;52.216;6.874;2023-04-25T09:53:37;3.17;;;0.60;;
51228;SDS011;37304;52.216;6.874;2023-04-25T09:58:39;4.30;;;0.63;;
51228;SDS011;37304;52.216;6.874;2023-04-25T10:03:40;5.65;;;0.70;;
51228;SDS011;37304;52.216;6.874;2023-04-25T10:08:41;3.90;;;0.60;;
51228;SDS011;37304;52.216;6.874;2023-04-25T10:13:43;3.78;;;0.70;;
51228;SDS011;37304;52.216;6.874;2023-04-25T10:18:45;0.95;;;0.40;;
51228;SDS011;37304;52.216;6.874;2023-04-25T10:23:45;4.07;;;0.63;;
51228;SDS011;37304;52.216;6.874;2023-04-25T10:28:54;1.58;;;0.32;;
51228;SDS011;37304;52.216;6.874;2023-04-25T10:33:55;4.03;;;0.47;;
51228;SDS011;37304;52.216;6.874;2023-04-25T10:38:56;3.63;;;0.85;;
51228;SDS011;37304;52.216;6.874;2023-04-25T10:44:02;1.67;;;0.60;;
51228;SDS011;37304;52.216;6.874;2023-04-25T10:49:04;2.42;;;0.70;;
51228;SDS011;37304;52.216;6.874;2023-04-25T10:54:09;3.53;;;0.67;;
51228;SDS011;37304;52.216;6.874;2023-04-25T11:04:20;3.08;;;0.50;;
51228;SDS011;37304;52.216;6.874;2023-04-25T11:09:23;3.67;;;0.60;;
51228;SDS011;37304;52.216;6.874;2023-04-25T11:14:27;0.68;;;0.30;;
51228;SDS011;37304;52.216;6.874;2023-04-25T11:19:28;1.88;;;0.50;;
51228;SDS011;37304;52.216;6.874;2023-04-25T11:24:30;2.97;;;0.77;;
51228;SDS011;37304;52.216;6.874;2023-04-25T11:29:32;2.13;;;0.80;;
51228;SDS011;37304;52.216;6.874;2023-04-25T11:34:33;3.33;;;0.82;;
51228;SDS011;37304;52.216;6.874;2023-04-25T11:39:34;1.60;;;0.32;;
51228;SDS011;37304;52.216;6.874;2023-04-25T11:44:34;1.20;;;0.30;;
51228;SDS011;37304;52.216;6.874;2023-04-25T11:49:40;2.35;;;0.30;;
51228;SDS011;37304;52.216;6.874;2023-04-25T11:54:42;0.30;;;0.30;;
51228;SDS011;37304;52.216;6.874;2023-04-25T11:59:44;3.70;;;0.40;;
51228;SDS011;37304;52.216;6.874;2023-04-25T12:04:45;0.68;;;0.28;;
51228;SDS011;37304;52.216;6.874;2023-04-25T12:09:50;1.43;;;0.63;;
51228;SDS011;37304;52.216;6.874;2023-04-25T12:14:51;4.20;;;0.60;;
51228;SDS011;37304;52.216;6.874;2023-04-25T12:19:52;1.93;;;0.47;;
51228;SDS011;37304;52.216;6.874;2023-04-25T12:24:52;3.37;;;0.60;;
51228;SDS011;37304;52.216;6.874;2023-04-25T12:29:54;0.52;;;0.40;;
51228;SDS011;37304;52.216;6.874;2023-04-25T12:34:56;3.03;;;0.73;;
51228;SDS011;37304;52.216;6.874;2023-04-25T12:39:56;3.58;;;0.52;;
51228;SDS011;37304;52.216;6.874;2023-04-25T12:44:57;0.73;;;0.37;;
51228;SDS011;37304;52.216;6.874;2023-04-25T12:49:57;3.93;;;0.60;;
51228;SDS011;37304;52.216;6.874;2023-04-25T12:54:57;3.47;;;0.80;;
51228;SDS011;37304;52.216;6.874;2023-04-25T12:59:58;3.27;;;0.77;;
51228;SDS011;37304;52.216;6.874;2023-04-25T13:04:58;3.70;;;0.93;;
51228;SDS011;37304;52.216;6.874;2023-04-25T13:09:58;3.87;;;0.70;;
51228;SDS011;37304;52.216;6.874;2023-04-25T13:14:59;1.90;;;0.52;;
51228;SDS011;37304;52.216;6.874;2023-04-25T13:19:59;1.97;;;0.67;;
51228;SDS011;37304;52.216;6.874;2023-04-25T13:25:00;3.33;;;1.00;;
51228;SDS011;37304;52.216;6.874;2023-04-25T13:30:00;0.63;;;0.50;;
51228;SDS011;37304;52.216;6.874;2023-04-25T13:35:05;0.70;;;0.30;;
51228;SDS011;37304;52.216;6.874;2023-04-25T13:40:10;2.10;;;0.45;;
51228;SDS011;37304;52.216;6.874;2023-04-25T13:45:11;3.47;;;0.40;;
51228;SDS011;37304;52.216;6.874;2023-04-25T13:50:14;3.47;;;0.50;;
51228;SDS011;37304;52.216;6.874;2023-04-25T13:55:16;3.55;;;0.43;;
51228;SDS011;37304;52.216;6.874;2023-04-25T14:00:16;2.27;;;0.73;;
51228;SDS011;37304;52.216;6.874;2023-04-25T14:05:17;1.30;;;0.40;;
51228;SDS011;37304;52.216;6.874;2023-04-25T14:10:19;1.77;;;0.33;;
51228;SDS011;37304;52.216;6.874;2023-04-25T14:15:20;1.95;;;0.30;;
51228;SDS011;37304;52.216;6.874;2023-04-25T14:20:21;1.63;;;0.45;;
51228;SDS011;37304;52.216;6.874;2023-04-25T14:25:24;2.67;;;0.60;;
51228;SDS011;37304;52.216;6.874;2023-04-25T14:30:24;2.00;;;0.50;;
51228;SDS011;37304;52.216;6.874;2023-04-25T14:35:25;4.27;;;0.40;;
51228;SDS011;37304;52.216;6.874;2023-04-25T14:40:25;1.57;;;0.33;;
51228;SDS011;37304;52.216;6.874;2023-04-25T14:45:26;1.38;;;0.40;;
51228;SDS011;37304;52.216;6.874;2023-04-25T14:50:26;3.33;;;0.40;;
51228;SDS011;37304;52.216;6.874;2023-04-25T14:55:27;3.40;;;0.63;;
51228;SDS011;37304;52.216;6.874;2023-04-25T15:00:27;0.98;;;0.50;;
51228;SDS011;37304;52.216;6.874;2023-04-25T15:05:28;2.53;;;0.37;;
51228;SDS011;37304;52.216;6.874;2023-04-25T15:10:28;1.70;;;0.30;;
51228;SDS011;37304;52.216;6.874;2023-04-25T15:15:29;1.93;;;0.50;;
51228;SDS011;37304;52.216;6.874;2023-04-25T15:20:29;4.65;;;0.75;;
51228;SDS011;37304;52.216;6.874;2023-04-25T15:25:30;6.22;;;0.90;;
51228;SDS011;37304;52.216;6.874;2023-04-25T15:30:30;1.30;;;0.70;;
51228;SDS011;37304;52.216;6.874;2023-04-25T15:35:31;2.57;;;0.47;;
51228;SDS011;37304;52.216;6.874;2023-04-25T15:40:31;1.50;;;0.80;;
51228;SDS011;37304;52.216;6.874;2023-04-25T15:45:31;0.77;;;0.50;;
51228;SDS011;37304;52.216;6.874;2023-04-25T15:50:32;3.83;;;0.90;;
51228;SDS011;37304;52.216;6.874;2023-04-25T15:55:34;4.97;;;0.90;;
51228;SDS011;37304;52.216;6.874;2023-04-25T16:00:35;2.25;;;0.50;;
51228;SDS011;37304;52.216;6.874;2023-04-25T16:05:36;3.22;;;0.75;;
51228;SDS011;37304;52.216;6.874;2023-04-25T16:10:37;4.87;;;0.80;;
51228;SDS011;37304;52.216;6.874;2023-04-25T16:20:39;3.35;;;0.80;;
51228;SDS011;37304;52.216;6.874;2023-04-25T16:30:41;2.35;;;0.63;;
51228;SDS011;37304;52.216;6.874;2023-04-25T16:35:42;2.67;;;0.50;;
51228;SDS011;37304;52.216;6.874;2023-04-25T16:40:45;5.70;;;0.80;;
51228;SDS011;37304;52.216;6.874;2023-04-25T16:45:46;1.63;;;0.60;;
51228;SDS011;37304;52.216;6.874;2023-04-25T16:55:47;3.80;;;0.77;;
51228;SDS011;37304;52.216;6.874;2023-04-25T17:05:52;1.25;;;0.85;;
51228;SDS011;37304;52.216;6.874;2023-04-25T17:10:55;2.22;;;0.70;;
51228;SDS011;37304;52.216;6.874;2023-04-25T17:15:56;1.73;;;0.57;;
51228;SDS011;37304;52.216;6.874;2023-04-25T17:25:57;2.92;;;0.60;;
51228;SDS011;37304;52.216;6.874;2023-04-25T17:30:58;0.82;;;0.60;;
51228;SDS011;37304;52.216;6.874;2023-04-25T17:35:59;2.10;;;1.08;;
51228;SDS011;37304;52.216;6.874;2023-04-25T17:45:59;5.20;;;0.88;;
51228;SDS011;37304;52.216;6.874;2023-04-25T17:51:00;2.70;;;0.70;;
51228;SDS011;37304;52.216;6.874;2023-04-25T17:56:01;4.97;;;1.10;;
51228;SDS011;37304;52.216;6.874;2023-04-25T18:01:01;5.37;;;0.93;;
51228;SDS011;37304;52.216;6.874;2023-04-25T18:06:04;3.13;;;0.60;;
51228;SDS011;37304;52.216;6.874;2023-04-25T18:11:05;4.03;;;1.00;;
51228;SDS011;37304;52.216;6.874;2023-04-25T18:16:06;4.13;;;1.10;;
51228;SDS011;37304;52.216;6.874;2023-04-25T18:21:08;2.75;;;0.70;;
51228;SDS011;37304;52.216;6.874;2023-04-25T18:26:09;3.92;;;1.17;;
51228;SDS011;37304;52.216;6.874;2023-04-25T18:31:11;2.42;;;0.70;;
51228;SDS011;37304;52.216;6.874;2023-04-25T18:36:15;9.73;;;1.40;;
51228;SDS011;37304;52.216;6.874;2023-04-25T18:41:16;5.72;;;0.75;;
51228;SDS011;37304;52.216;6.874;2023-04-25T18:46:19;9.60;;;1.20;;
51228;SDS011;37304;52.216;6.874;2023-04-25T18:51:21;1.83;;;0.60;;
51228;SDS011;37304;52.216;6.874;2023-04-25T18:56:23;3.30;;;0.70;;
51228;SDS011;37304;52.216;6.874;2023-04-25T19:01:27;1.85;;;0.73;;
51228;SDS011;37304;52.216;6.874;2023-04-25T19:06:27;5.40;;;1.30;;
51228;SDS011;37304;52.216;6.874;2023-04-25T19:11:28;2.42;;;0.52;;
51228;SDS011;37304;52.216;6.874;2023-04-25T19:16:29;2.97;;;0.93;;
51228;SDS011;37304;52.216;6.874;2023-04-25T19:21:36;2.85;;;1.20;;
51228;SDS011;37304;52.216;6.874;2023-04-25T19:26:38;4.28;;;1.05;;
51228;SDS011;37304;52.216;6.874;2023-04-25T19:31:39;1.60;;;0.70;;
51228;SDS011;37304;52.216;6.874;2023-04-25T19:36:41;2.38;;;1.50;;
51228;SDS011;37304;52.216;6.874;2023-04-25T19:46:50;4.22;;;1.10;;
51228;SDS011;37304;52.216;6.874;2023-04-25T19:51:51;3.90;;;1.33;;
51228;SDS011;37304;52.216;6.874;2023-04-25T19:56:51;1.53;;;0.77;;
51228;SDS011;37304;52.216;6.874;2023-04-25T20:01:52;1.23;;;0.80;;
51228;SDS011;37304;52.216;6.874;2023-04-25T20:06:52;4.43;;;1.30;;
51228;SDS011;37304;52.216;6.874;2023-04-25T20:11:53;2.33;;;0.90;;
51228;SDS011;37304;52.216;6.874;2023-04-25T20:16:54;3.95;;;1.25;;
51228;SDS011;37304;52.216;6.874;2023-04-25T20:21:55;5.23;;;1.13;;
51228;SDS011;37304;52.216;6.874;2023-04-25T20:26:56;6.30;;;1.13;;
51228;SDS011;37304;52.216;6.874;2023-04-25T20:31:56;3.07;;;0.77;;
51228;SDS011;37304;52.216;6.874;2023-04-25T20:36:57;4.07;;;0.87;;
51228;SDS011;37304;52.216;6.874;2023-04-25T20:41:58;15.82;;;1.30;;
51228;SDS011;37304;52.216;6.874;2023-04-25T20:46:58;3.22;;;1.00;;
51228;SDS011;37304;52.216;6.874;2023-04-25T20:51:59;4.90;;;1.97;;
51228;SDS011;37304;52.216;6.874;2023-04-25T20:57:00;3.63;;;1.00;;
51228;SDS011;37304;52.216;6.874;2023-04-25T21:02:01;1.88;;;0.98;;
51228;SDS011;37304;52.216;6.874;2023-04-25T21:07:01;3.10;;;1.20;;
51228;SDS011;37304;52.216;6.874;2023-04-25T21:12:05;2.50;;;1.27;;
51228;SDS011;37304;52.216;6.874;2023-04-25T21:17:05;5.07;;;1.08;;
51228;SDS011;37304;52.216;6.874;2023-04-25T21:22:06;1.60;;;1.50;;
51228;SDS011;37304;52.216;6.874;2023-04-25T21:27:06;3.73;;;1.83;;
51228;SDS011;37304;52.216;6.874;2023-04-25T21:32:07;7.77;;;1.73;;
51228;SDS011;37304;52.216;6.874;2023-04-25T21:37:07;1.52;;;0.90;;
51228;SDS011;37304;52.216;6.874;2023-04-25T21:42:08;8.52;;;1.98;;
51228;SDS011;37304;52.216;6.874;2023-04-25T21:47:09;4.68;;;1.42;;
51228;SDS011;37304;52.216;6.874;2023-04-25T21:52:10;3.20;;;1.30;;
51228;SDS011;37304;52.216;6.874;2023-04-25T21:57:10;6.13;;;1.43;;
51228;SDS011;37304;52.216;6.874;2023-04-25T22:02:10;4.40;;;1.90;;
51228;SDS011;37304;52.216;6.874;2023-04-25T22:07:11;4.93;;;1.53;;
51228;SDS011;37304;52.216;6.874;2023-04-25T22:17:14;5.47;;;1.73;;
51228;SDS011;37304;52.216;6.874;2023-04-25T22:22:14;3.13;;;1.20;;
51228;SDS011;37304;52.216;6.874;2023-04-25T22:27:14;4.60;;;1.73;;
51228;SDS011;37304;52.216;6.874;2023-04-25T22:32:15;5.13;;;1.27;;
51228;SDS011;37304;52.216;6.874;2023-04-25T22:37:16;11.02;;;1.83;;
51228;SDS011;37304;52.216;6.874;2023-04-25T22:42:16;10.80;;;1.43;;
51228;SDS011;37304;52.216;6.874;2023-04-25T22:47:17;3.60;;;0.73;;
51228;SDS011;37304;52.216;6.874;2023-04-25T22:52:17;3.80;;;1.43;;
51228;SDS011;37304;52.216;6.874;2023-04-25T22:57:17;3.67;;;1.37;;
51228;SDS011;37304;52.216;6.874;2023-04-25T23:02:18;7.32;;;1.23;;
51228;SDS011;37304;52.216;6.874;2023-04-25T23:07:19;4.35;;;1.63;;
51228;SDS011;37304;52.216;6.874;2023-04-25T23:12:19;3.90;;;1.20;;
51228;SDS011;37304;52.216;6.874;2023-04-25T23:17:20;6.73;;;1.63;;
51228;SDS011;37304;52.216;6.874;2023-04-25T23:22:20;8.07;;;1.50;;
51228;SDS011;37304;52.216;6.874;2023-04-25T23:27:20;2.90;;;1.33;;
51228;SDS011;37304;52.216;6.874;2023-04-25T23:32:21;7.30;;;1.88;;
51228;SDS011;37304;52.216;6.874;2023-04-25T23:37:22;3.22;;;1.25;;
51228;SDS011;37304;52.216;6.874;2023-04-25T23:42:22;3.00;;;1.80;;
51228;SDS011;37304;52.216;6.874;2023-04-25T23:47:23;2.77;;;1.50;;
51228;SDS011;37304;52.216;6.874;2023-04-25T23:52:23;5.37;;;1.40;;
51228;SDS011;37304;52.216;6.874;2023-04-25T23:57:23;6.07;;;1.97;;
